Time;durP1;ratioP1;P1;durP2;ratioP2;P2;SDS_P1;SDS_P2;PMS_P1;PMS_P2;Temp;Humidity;BMP_temperature;BMP_pressure;BME280_temperature;BME280_humidity;BME280_pressure;Samples;Min_cycle;Max_cycle;Signal;HPM_P1;HPM_P2
2023/12/03 00:01:32;;;;;;;17.20;4.63;;;;;;;13.58;88.12;96429.34;5067062;28;20028;-80
2023/12/03 00:03:58;;;;;;;20.02;4.22;;;;;;;13.68;87.34;96440.09;5075485;28;20085;-80
2023/12/03 00:06:24;;;;;;;14.32;5.05;;;;;;;13.64;88.47;96427.94;5075213;28;20089;-80
2023/12/03 00:08:49;;;;;;;16.77;5.35;;;;;;;13.56;91.31;96436.72;5109703;28;20085;-80
2023/12/03 00:11:15;;;;;;;19.35;4.03;;;;;;;13.52;91.45;96446.03;5095689;28;20036;-80
2023/12/03 00:13:40;;;;;;;23.67;5.45;;;;;;;13.49;92.66;96449.00;5095529;28;20114;-79
2023/12/03 00:16:06;;;;;;;16.95;4.20;;;;;;;13.40;91.03;96453.38;5095498;28;20043;-80
2023/12/03 00:18:32;;;;;;;10.73;3.08;;;;;;;13.39;91.80;96450.81;5086111;28;20077;-79
2023/12/03 00:20:58;;;;;;;19.98;4.28;;;;;;;13.41;91.81;96465.81;5092905;28;20027;-79
2023/12/03 00:23:23;;;;;;;20.52;4.93;;;;;;;13.34;96.33;96469.19;5080542;28;20063;-79
2023/12/03 00:25:49;;;;;;;16.90;4.30;;;;;;;13.23;97.89;96471.97;5094683;28;20027;-79
2023/12/03 00:28:15;;;;;;;14.73;4.85;;;;;;;13.16;100.00;96477.06;5091848;28;20567;-80
2023/12/03 00:30:40;;;;;;;28.50;4.63;;;;;;;13.01;100.00;96478.41;5075000;28;20032;-80
2023/12/03 00:33:06;;;;;;;17.63;4.53;;;;;;;12.93;100.00;96480.91;5091738;28;20115;-80
2023/12/03 00:35:31;;;;;;;21.20;7.15;;;;;;;12.87;100.00;96481.44;5074903;28;20036;-80
2023/12/03 00:37:57;;;;;;;24.48;7.25;;;;;;;12.93;100.00;96488.97;5078047;28;20094;-80
2023/12/03 00:40:23;;;;;;;42.47;15.18;;;;;;;12.87;100.00;96486.81;5079388;28;20100;-80
2023/12/03 00:42:49;;;;;;;30.15;10.40;;;;;;;12.87;100.00;96497.56;5074661;28;20036;-79
2023/12/03 00:45:15;;;;;;;15.10;6.03;;;;;;;12.83;100.00;96491.59;5074901;28;20028;-81
2023/12/03 00:47:40;;;;;;;8.00;3.33;;;;;;;12.85;100.00;96495.03;5089757;28;20038;-80
2023/12/03 00:50:06;;;;;;;20.80;5.65;;;;;;;12.86;100.00;96487.78;5066021;28;20095;-79
2023/12/03 00:52:32;;;;;;;27.85;8.07;;;;;;;12.83;100.00;96486.22;5082567;28;20083;-80
2023/12/03 00:54:57;;;;;;;16.67;3.67;;;;;;;12.88;100.00;96483.16;5094529;28;20023;-80
2023/12/03 00:57:24;;;;;;;20.52;7.15;;;;;;;12.93;100.00;96491.63;5094778;28;20486;-81
2023/12/03 00:59:49;;;;;;;16.33;5.15;;;;;;;12.81;100.00;96484.66;5094583;28;20019;-79
2023/12/03 01:02:15;;;;;;;13.45;4.28;;;;;;;12.78;100.00;96466.16;5075317;28;20127;-80
2023/12/03 01:04:40;;;;;;;16.10;2.85;;;;;;;12.88;100.00;96475.09;5074123;28;20438;-80
2023/12/03 01:07:07;;;;;;;18.10;4.00;;;;;;;12.81;100.00;96482.00;5082619;28;20390;-80
2023/12/03 01:09:32;;;;;;;17.15;3.80;;;;;;;12.72;100.00;96489.03;5104610;28;20042;-80
2023/12/03 01:11:58;;;;;;;11.52;2.53;;;;;;;12.67;100.00;96493.94;5066027;28;20028;-79
2023/12/03 01:14:24;;;;;;;15.27;2.67;;;;;;;12.73;100.00;96488.03;5089062;28;20434;-79
2023/12/03 01:16:49;;;;;;;14.95;3.17;;;;;;;12.68;100.00;96502.81;5068240;28;20047;-80
2023/12/03 01:19:15;;;;;;;13.57;3.08;;;;;;;12.60;100.00;96500.81;5110124;28;20162;-80
2023/12/03 01:21:40;;;;;;;13.82;2.97;;;;;;;12.71;100.00;96497.19;5094023;28;20031;-79
2023/12/03 01:24:06;;;;;;;20.92;3.10;;;;;;;12.63;100.00;96500.56;5062765;28;20032;-80
2023/12/03 01:26:32;;;;;;;19.95;3.38;;;;;;;12.55;100.00;96502.22;5089299;28;20107;-80
2023/12/03 01:28:58;;;;;;;14.15;3.30;;;;;;;12.48;100.00;96491.16;5076931;28;20019;-79
2023/12/03 01:31:24;;;;;;;12.80;3.17;;;;;;;12.47;100.00;96501.03;5087601;28;20036;-81
2023/12/03 01:33:49;;;;;;;17.10;3.00;;;;;;;12.28;100.00;96498.22;5076888;28;20088;-80
2023/12/03 01:36:15;;;;;;;12.75;3.50;;;;;;;12.20;100.00;96500.72;5093711;28;20437;-80
2023/12/03 01:38:41;;;;;;;18.10;2.90;;;;;;;12.16;100.00;96510.00;5094198;28;20054;-80
2023/12/03 01:41:07;;;;;;;10.30;3.00;;;;;;;12.12;100.00;96521.94;5068226;28;20046;-80
2023/12/03 01:43:32;;;;;;;10.05;3.63;;;;;;;12.12;100.00;96511.22;5102561;28;20038;-80
2023/12/03 01:45:58;;;;;;;10.80;3.15;;;;;;;12.03;100.00;96514.69;5075088;28;20111;-80
2023/12/03 01:48:25;;;;;;;12.50;3.60;;;;;;;12.01;100.00;96530.03;5076759;28;20129;-79
2023/12/03 01:50:51;;;;;;;13.77;3.60;;;;;;;11.97;100.00;96519.72;5093383;28;20043;-80
2023/12/03 01:53:18;;;;;;;15.68;5.82;;;;;;;11.92;100.00;96526.31;5072276;28;20494;-80
2023/12/03 01:55:44;;;;;;;20.35;5.88;;;;;;;11.97;100.00;96533.94;5072604;28;20058;-80
2023/12/03 01:58:10;;;;;;;25.15;5.97;;;;;;;11.95;100.00;96526.06;5076498;28;20427;-80
2023/12/03 02:00:35;;;;;;;19.27;4.75;;;;;;;11.98;100.00;96542.84;5070001;28;20114;-80
2023/12/03 02:03:01;;;;;;;19.30;5.13;;;;;;;12.11;100.00;96522.94;5072973;28;20119;-80
2023/12/03 02:05:27;;;;;;;14.60;4.45;;;;;;;12.23;100.00;96529.94;5067048;28;20397;-80
2023/12/03 02:07:53;;;;;;;17.48;4.55;;;;;;;12.26;100.00;96520.78;5076517;28;20028;-79
2023/12/03 02:10:19;;;;;;;16.92;4.85;;;;;;;12.23;100.00;96524.59;5093458;28;20415;-80
2023/12/03 02:12:44;;;;;;;15.57;4.72;;;;;;;12.25;100.00;96527.97;5088857;28;20039;-80
2023/12/03 02:15:10;;;;;;;13.45;4.00;;;;;;;12.32;100.00;96545.25;5089781;28;20234;-80
2023/12/03 02:17:36;;;;;;;15.52;3.55;;;;;;;12.31;100.00;96531.97;5073135;28;20032;-80
2023/12/03 02:20:03;;;;;;;18.88;4.00;;;;;;;12.37;100.00;96521.56;5089432;28;20114;-80
2023/12/03 02:22:29;;;;;;;19.58;3.33;;;;;;;12.45;100.00;96534.34;5073160;28;20028;-80
2023/12/03 02:24:54;;;;;;;11.70;3.90;;;;;;;12.52;100.00;96534.66;5072840;28;20027;-80
2023/12/03 02:27:20;;;;;;;16.70;4.32;;;;;;;12.61;100.00;96531.19;5092883;28;20027;-80
2023/12/03 02:29:49;;;;;;;14.93;3.95;;;;;;;12.69;100.00;96523.31;5092902;28;20375;-80
2023/12/03 02:32:14;;;;;;;19.60;4.22;;;;;;;12.75;100.00;96530.81;5102833;28;20520;-80
2023/12/03 02:34:40;;;;;;;19.85;4.07;;;;;;;12.84;100.00;96517.47;5055766;28;20063;-79
2023/12/03 02:37:05;;;;;;;17.00;3.83;;;;;;;12.83;100.00;96528.31;5059318;28;20106;-80
2023/12/03 02:39:31;;;;;;;29.52;7.55;;;;;;;12.82;100.00;96529.31;5055890;28;20042;-80
2023/12/03 02:41:57;;;;;;;18.77;4.63;;;;;;;12.83;100.00;96517.56;5069666;28;20553;-80
2023/12/03 02:44:22;;;;;;;14.10;4.50;;;;;;;12.85;100.00;96531.72;5092919;28;20027;-80
2023/12/03 02:46:48;;;;;;;13.50;4.13;;;;;;;12.82;100.00;96537.38;5066947;28;20400;-80
2023/12/03 02:49:13;;;;;;;17.90;5.10;;;;;;;12.74;100.00;96539.84;5082596;28;20107;-80
2023/12/03 02:51:39;;;;;;;26.23;5.05;;;;;;;12.67;100.00;96550.28;5075931;28;20038;-80
2023/12/03 02:54:04;;;;;;;12.80;5.45;;;;;;;12.61;100.00;96555.31;5086647;28;20035;-80
2023/12/03 02:56:31;;;;;;;23.20;5.75;;;;;;;12.56;100.00;96562.91;5089336;28;20032;-79
2023/12/03 02:58:56;;;;;;;14.38;5.22;;;;;;;12.47;100.00;96559.19;5074853;28;20593;-79
2023/12/03 03:01:22;;;;;;;22.25;5.93;;;;;;;12.47;100.00;96573.44;5075786;28;20043;-79
2023/12/03 03:03:48;;;;;;;18.17;4.85;;;;;;;12.46;100.00;96563.69;5072572;28;20020;-80
2023/12/03 03:06:13;;;;;;;23.30;4.78;;;;;;;12.36;100.00;96572.66;5072555;28;20027;-80
2023/12/03 03:08:39;;;;;;;23.00;4.85;;;;;;;12.39;100.00;96583.13;5072663;28;20028;-80
2023/12/03 03:11:05;;;;;;;21.35;5.18;;;;;;;12.40;100.00;96599.06;5072445;28;20024;-79
2023/12/03 03:13:30;;;;;;;18.42;4.70;;;;;;;12.42;100.00;96588.22;5072498;28;20502;-80
2023/12/03 03:15:56;;;;;;;14.02;4.40;;;;;;;12.42;100.00;96594.44;5073770;28;20024;-79
2023/12/03 03:18:21;;;;;;;13.93;4.53;;;;;;;12.46;100.00;96606.59;5075503;28;20035;-79
2023/12/03 03:20:47;;;;;;;21.48;4.90;;;;;;;12.48;100.00;96614.53;5078450;28;20440;-80
2023/12/03 03:23:13;;;;;;;20.25;6.60;;;;;;;12.31;100.00;96623.97;5072189;28;20483;-80
2023/12/03 03:25:38;;;;;;;17.38;5.28;;;;;;;12.37;100.00;96626.16;5084940;28;20020;-80
2023/12/03 03:28:04;;;;;;;18.42;4.70;;;;;;;12.44;100.00;96623.81;5075510;28;20031;-79
2023/12/03 03:30:29;;;;;;;17.15;4.45;;;;;;;12.49;100.00;96635.00;5092439;28;20027;-79
2023/12/03 03:32:55;;;;;;;16.98;4.22;;;;;;;12.59;100.00;96648.47;5092359;28;20073;-79
2023/12/03 03:35:21;;;;;;;15.88;4.72;;;;;;;12.68;100.00;96661.97;5092034;28;20487;-80
2023/12/03 03:37:46;;;;;;;15.90;5.20;;;;;;;12.77;100.00;96673.75;5092446;28;20089;-80
2023/12/03 03:40:12;;;;;;;15.57;4.32;;;;;;;12.88;100.00;96676.41;5075103;28;20065;-79
2023/12/03 03:42:37;;;;;;;14.52;4.75;;;;;;;13.00;100.00;96696.81;5110686;28;20478;-80
2023/12/03 03:45:04;;;;;;;13.32;5.22;;;;;;;13.05;100.00;96716.06;5092325;28;20123;-80
2023/12/03 03:47:29;;;;;;;11.45;4.43;;;;;;;13.06;100.00;96717.78;5092382;28;20035;-81
2023/12/03 03:49:55;;;;;;;18.83;5.28;;;;;;;13.12;100.00;96730.72;5074719;28;20047;-81
2023/12/03 03:52:20;;;;;;;13.95;4.20;;;;;;;13.06;100.00;96733.88;5072180;28;20085;-79
2023/12/03 03:54:46;;;;;;;12.40;4.40;;;;;;;13.10;100.00;96740.75;5089879;28;20036;-80
2023/12/03 03:57:11;;;;;;;9.80;4.13;;;;;;;13.05;100.00;96743.78;5095040;28;20028;-80
2023/12/03 03:59:37;;;;;;;15.35;4.28;;;;;;;13.04;100.00;96744.75;5078866;28;20034;-80
2023/12/03 04:02:03;;;;;;;10.20;4.28;;;;;;;13.00;100.00;96748.69;5095505;28;20027;-80
2023/12/03 04:04:28;;;;;;;10.05;4.00;;;;;;;12.97;100.00;96750.78;5078752;28;20580;-80
2023/12/03 04:06:54;;;;;;;16.65;4.30;;;;;;;13.00;100.00;96753.19;5095741;28;20027;-80
2023/12/03 04:09:20;;;;;;;12.80;4.30;;;;;;;13.01;100.00;96765.66;5078814;28;20451;-80
2023/12/03 04:11:46;;;;;;;14.20;4.03;;;;;;;13.03;100.00;96774.41;5077606;28;20471;-81
2023/12/03 04:14:14;;;;;;;10.40;3.95;;;;;;;13.03;100.00;96772.59;5075249;28;20065;-80
2023/12/03 04:16:40;;;;;;;8.70;3.75;;;;;;;13.11;100.00;96787.22;5075046;28;20024;-79
2023/12/03 04:19:06;;;;;;;10.35;3.78;;;;;;;13.13;100.00;96786.13;5092765;28;20039;-81
2023/12/03 04:21:32;;;;;;;10.40;4.30;;;;;;;13.11;100.00;96789.91;5062369;28;20033;-80
2023/12/03 04:23:58;;;;;;;12.27;3.97;;;;;;;12.97;100.00;96793.72;5084996;28;20031;-81
2023/12/03 04:26:24;;;;;;;8.35;4.03;;;;;;;13.00;100.00;96812.25;5095208;28;20023;-80
2023/12/03 04:28:50;;;;;;;8.27;4.50;;;;;;;12.95;100.00;96806.44;5093879;28;20047;-81
2023/12/03 04:31:19;;;;;;;11.30;4.72;;;;;;;12.83;100.00;96810.09;5074820;28;20028;-80
2023/12/03 04:33:45;;;;;;;13.50;5.07;;;;;;;12.71;100.00;96809.28;5058553;28;20036;-80
2023/12/03 04:36:11;;;;;;;13.98;4.88;;;;;;;12.66;100.00;96805.28;5104019;28;20081;-80
2023/12/03 04:38:37;;;;;;;13.23;5.80;;;;;;;12.57;100.00;96803.34;5095189;28;20025;-81
2023/12/03 04:41:03;;;;;;;9.02;5.45;;;;;;;12.53;100.00;96816.16;5072265;28;22049;-81
2023/12/03 04:43:28;;;;;;;12.88;4.82;;;;;;;12.50;100.00;96829.81;5078349;28;20475;-81
2023/12/03 04:45:54;;;;;;;12.90;5.18;;;;;;;12.41;100.00;96844.84;5073620;28;20020;-81
2023/12/03 04:48:19;;;;;;;10.48;4.85;;;;;;;12.38;100.00;96852.28;5073518;28;20431;-80
2023/12/03 04:50:45;;;;;;;12.52;5.20;;;;;;;12.32;100.00;96850.94;5074525;28;20075;-81
2023/12/03 04:53:11;;;;;;;16.73;5.32;;;;;;;12.23;100.00;96856.19;5093227;28;20032;-81
2023/12/03 04:55:36;;;;;;;10.38;4.82;;;;;;;12.31;100.00;96867.16;5077762;28;20053;-81
2023/12/03 04:58:02;;;;;;;12.13;5.28;;;;;;;12.30;100.00;96865.47;5094547;28;20038;-81
2023/12/03 05:00:27;;;;;;;13.32;6.65;;;;;;;12.27;100.00;96869.25;5082721;28;20064;-81
2023/12/03 05:02:53;;;;;;;12.32;5.82;;;;;;;12.35;100.00;96880.19;5084505;28;20040;-81
2023/12/03 05:05:19;;;;;;;13.10;5.95;;;;;;;12.26;100.00;96886.28;5074009;28;20032;-80
2023/12/03 05:07:45;;;;;;;14.60;6.22;;;;;;;12.22;100.00;96892.88;5072541;28;20031;-83
2023/12/03 05:10:10;;;;;;;15.60;6.88;;;;;;;12.20;100.00;96921.63;5077501;28;20076;-80
2023/12/03 05:12:36;;;;;;;11.25;5.75;;;;;;;12.14;100.00;96926.63;5077713;28;20551;-82
2023/12/03 05:15:02;;;;;;;22.05;6.45;;;;;;;12.25;100.00;96940.03;5070738;28;20032;-81
2023/12/03 05:17:28;;;;;;;15.07;6.20;;;;;;;12.17;100.00;96943.31;5076183;28;20032;-81
2023/12/03 05:19:53;;;;;;;10.25;5.70;;;;;;;12.18;100.00;96944.19;5084006;28;20419;-79
2023/12/03 05:22:19;;;;;;;12.60;6.20;;;;;;;12.23;100.00;96956.25;5056075;28;20078;-81
2023/12/03 05:24:45;;;;;;;11.20;6.03;;;;;;;12.28;100.00;96966.59;5088195;28;20026;-80
2023/12/03 05:27:11;;;;;;;16.73;7.90;;;;;;;12.32;100.00;96971.63;5057016;28;20094;-81
2023/12/03 05:29:41;;;;;;;22.23;8.15;;;;;;;12.23;100.00;96976.84;5078243;28;20099;-80
2023/12/03 05:32:07;;;;;;;14.10;7.45;;;;;;;12.18;100.00;96981.72;5084190;28;20023;-80
2023/12/03 05:34:32;;;;;;;17.75;7.00;;;;;;;12.18;100.00;96984.41;5091791;28;20080;-81
2023/12/03 05:36:58;;;;;;;19.27;7.55;;;;;;;12.15;100.00;96977.41;5073585;28;20116;-80
2023/12/03 05:39:24;;;;;;;18.08;7.20;;;;;;;12.13;100.00;96999.97;5091479;28;20119;-76
2023/12/03 05:41:49;;;;;;;13.25;6.22;;;;;;;12.07;100.00;97017.38;5093919;28;20035;-81
2023/12/03 05:44:15;;;;;;;16.27;6.53;;;;;;;12.16;100.00;97026.53;5083091;28;20028;-79
2023/12/03 05:46:41;;;;;;;13.07;6.80;;;;;;;12.00;100.00;97032.22;5085232;28;20035;-81
2023/12/03 05:49:08;;;;;;;14.93;7.43;;;;;;;11.96;100.00;97028.06;5076756;28;20028;-81
2023/12/03 05:51:34;;;;;;;12.57;7.25;;;;;;;12.00;100.00;97032.22;5058074;28;20055;-80
2023/12/03 05:53:59;;;;;;;14.93;7.18;;;;;;;12.04;100.00;97036.38;5056769;28;20027;-81
2023/12/03 05:56:25;;;;;;;17.45;6.97;;;;;;;11.94;100.00;97021.97;5057289;28;20119;-82
2023/12/03 05:58:51;;;;;;;21.13;8.85;;;;;;;11.84;100.00;97018.28;5089445;28;20024;-81
2023/12/03 06:01:24;;;;;;;20.73;10.10;;;;;;;11.80;100.00;97024.84;5056504;28;20031;-80
2023/12/03 06:03:50;;;;;;;26.55;10.88;;;;;;;11.81;100.00;97032.75;5079353;28;20023;-81
2023/12/03 06:06:16;;;;;;;17.52;9.50;;;;;;;11.75;100.00;97043.91;5076428;28;20539;-80
2023/12/03 06:08:41;;;;;;;16.98;8.75;;;;;;;11.69;100.00;97054.22;5089450;28;20027;-81
2023/12/03 06:11:07;;;;;;;21.92;9.43;;;;;;;11.56;100.00;97042.72;5080902;28;20023;-80
2023/12/03 06:13:33;;;;;;;23.38;9.60;;;;;;;11.49;100.00;97060.19;5082772;28;22729;-80
2023/12/03 06:15:58;;;;;;;20.60;8.73;;;;;;;11.46;100.00;97063.97;5080009;28;20516;-81
2023/12/03 06:18:24;;;;;;;16.25;9.38;;;;;;;11.44;100.00;97056.03;5072115;28;20510;-80
2023/12/03 06:20:49;;;;;;;18.77;7.50;;;;;;;11.58;100.00;97065.72;5056256;28;20507;-80
2023/12/03 06:23:15;;;;;;;18.38;8.40;;;;;;;11.62;100.00;97059.19;5056536;28;20084;-81
2023/12/03 06:25:41;;;;;;;20.80;8.52;;;;;;;11.72;100.00;97070.94;5088246;28;20492;-81
2023/12/03 06:28:06;;;;;;;17.20;9.25;;;;;;;11.75;100.00;97069.88;5072652;28;20491;-81
2023/12/03 06:30:32;;;;;;;15.80;8.32;;;;;;;11.82;100.00;97071.13;5073377;28;20070;-81
2023/12/03 06:32:58;;;;;;;17.38;7.88;;;;;;;11.76;100.00;97063.53;5093197;28;20475;-82
2023/12/03 06:35:23;;;;;;;14.43;8.05;;;;;;;11.71;100.00;97073.75;5064060;28;20040;-80
2023/12/03 06:37:49;;;;;;;17.65;7.95;;;;;;;11.64;100.00;97077.81;5072563;28;20039;-81
2023/12/03 06:40:15;;;;;;;24.70;10.10;;;;;;;11.64;100.00;97085.84;5081977;28;20407;-81
2023/12/03 06:42:40;;;;;;;19.40;9.23;;;;;;;11.53;100.00;97092.00;5092563;28;20024;-82
2023/12/03 06:45:07;;;;;;;20.85;10.82;;;;;;;11.39;100.00;97103.72;5076021;28;20026;-81
2023/12/03 06:47:32;;;;;;;14.35;8.63;;;;;;;11.43;100.00;97110.56;5090266;28;20027;-81
2023/12/03 06:49:58;;;;;;;18.13;9.10;;;;;;;11.46;100.00;97119.34;5076595;28;20043;-73
2023/12/03 06:52:24;;;;;;;21.08;8.75;;;;;;;11.41;100.00;97112.47;5074993;28;20518;-83
2023/12/03 06:54:49;;;;;;;20.67;9.32;;;;;;;11.58;100.00;97124.66;5071420;28;20031;-82
2023/12/03 06:57:15;;;;;;;26.73;13.15;;;;;;;11.58;100.00;97115.75;5053473;28;20024;-72
2023/12/03 06:59:40;;;;;;;30.02;14.65;;;;;;;11.60;100.00;97124.53;5100234;28;20023;-81
2023/12/03 07:02:06;;;;;;;28.98;13.65;;;;;;;11.64;100.00;97126.03;5081755;28;20030;-81
2023/12/03 07:04:32;;;;;;;24.02;12.57;;;;;;;11.61;100.00;97134.28;5073315;28;20462;-81
2023/12/03 07:06:59;;;;;;;26.70;14.02;;;;;;;11.58;100.00;97134.50;5072240;28;20017;-82
2023/12/03 07:09:25;;;;;;;22.80;12.25;;;;;;;11.52;100.00;97143.00;5089623;28;20042;-82
2023/12/03 07:11:51;;;;;;;18.52;11.10;;;;;;;11.38;100.00;97152.88;5074879;28;20036;-81
2023/12/03 07:14:17;;;;;;;21.48;13.40;;;;;;;11.34;100.00;97158.56;5085565;28;20150;-83
2023/12/03 07:16:42;;;;;;;17.38;7.93;;;;;;;11.14;100.00;97159.09;5064164;28;20028;-83
2023/12/03 07:19:08;;;;;;;23.73;11.57;;;;;;;11.10;100.00;97161.16;5066279;28;20077;-81
2023/12/03 07:21:34;;;;;;;18.52;8.95;;;;;;;11.10;100.00;97154.94;5068952;28;20114;-84
2023/12/03 07:23:59;;;;;;;19.45;8.90;;;;;;;10.97;100.00;97157.63;5077010;28;20061;-82
2023/12/03 07:26:25;;;;;;;13.43;5.70;;;;;;;10.93;100.00;97172.16;5087426;28;20111;-82
2023/12/03 07:28:51;;;;;;;33.85;17.13;;;;;;;10.89;100.00;97173.34;5066272;28;20514;-81
2023/12/03 07:31:17;;;;;;;38.28;18.92;;;;;;;10.87;100.00;97184.16;5079906;28;20482;-72
2023/12/03 07:33:42;;;;;;;24.65;12.23;;;;;;;10.82;100.00;97186.31;5090254;28;20031;-72
2023/12/03 07:36:09;;;;;;;17.77;7.75;;;;;;;10.87;100.00;97199.34;5075028;28;20035;-73
2023/12/03 07:38:35;;;;;;;15.35;8.27;;;;;;;10.74;100.00;97198.47;5082387;28;20027;-81
2023/12/03 07:41:01;;;;;;;8.75;5.13;;;;;;;10.63;100.00;97201.88;5080031;28;20046;-80
2023/12/03 07:43:27;;;;;;;9.57;5.25;;;;;;;10.61;100.00;97203.78;5110771;28;20512;-81
2023/12/03 07:45:52;;;;;;;15.63;6.55;;;;;;;10.69;100.00;97211.31;5089322;28;20328;-82
2023/12/03 07:48:18;;;;;;;11.07;6.63;;;;;;;10.67;100.00;97214.09;5084789;28;20036;-81
2023/12/03 07:50:44;;;;;;;12.65;7.80;;;;;;;10.73;100.00;97213.69;5063168;28;20107;-76
2023/12/03 07:53:10;;;;;;;13.75;6.95;;;;;;;10.73;100.00;97231.56;5079449;28;20119;-73
2023/12/03 07:55:36;;;;;;;17.30;8.13;;;;;;;10.71;100.00;97236.13;5073396;28;20038;-73
2023/12/03 07:58:02;;;;;;;52.80;30.08;;;;;;;10.73;100.00;97240.44;5080396;28;20036;-72
2023/12/03 08:00:27;;;;;;;81.63;49.15;;;;;;;10.62;100.00;97237.63;5077784;28;20029;-73
2023/12/03 08:02:53;;;;;;;11.90;6.13;;;;;;;10.58;100.00;97241.44;5074204;28;20039;-73
2023/12/03 08:05:19;;;;;;;93.97;53.00;;;;;;;10.56;100.00;97242.50;5079277;28;20078;-72
2023/12/03 08:07:44;;;;;;;31.23;14.45;;;;;;;10.54;100.00;97241.75;5082543;28;20024;-72
2023/12/03 08:10:10;;;;;;;28.98;13.25;;;;;;;10.43;100.00;97255.00;5089586;28;20027;-72
2023/12/03 08:12:35;;;;;;;7.70;4.78;;;;;;;10.29;100.00;97262.09;5089680;28;20131;-72
2023/12/03 08:15:01;;;;;;;36.00;17.48;;;;;;;10.02;100.00;97263.88;5069564;28;20025;-73
2023/12/03 08:17:26;;;;;;;31.30;15.43;;;;;;;9.88;100.00;97269.22;5091633;28;20536;-71
2023/12/03 08:19:52;;;;;;;25.65;13.50;;;;;;;9.85;100.00;97289.91;5081173;28;20463;-72
2023/12/03 08:22:18;;;;;;;26.50;13.40;;;;;;;9.81;100.00;97291.94;5104024;28;20032;-73
2023/12/03 08:24:43;;;;;;;19.15;9.90;;;;;;;9.80;100.00;97295.56;5080552;28;20447;-73
2023/12/03 08:27:09;;;;;;;21.85;9.90;;;;;;;9.86;100.00;97299.66;5076954;28;20111;-74
2023/12/03 08:29:35;;;;;;;24.30;12.30;;;;;;;9.72;100.00;97304.03;5070975;28;20090;-74
2023/12/03 08:32:00;;;;;;;21.92;11.20;;;;;;;9.70;100.00;97289.94;5088612;28;20055;-85
2023/12/03 08:34:28;;;;;;;19.02;9.88;;;;;;;9.85;100.00;97308.63;5072371;28;20039;-84
2023/12/03 08:36:55;;;;;;;21.77;10.13;;;;;;;9.80;100.00;97322.28;5072954;28;20119;-84
2023/12/03 08:39:21;;;;;;;13.10;8.95;;;;;;;9.72;100.00;97322.75;5079512;28;20119;-83
2023/12/03 08:41:47;;;;;;;30.60;14.27;;;;;;;9.76;100.00;97323.41;5056285;28;20119;-71
2023/12/03 08:44:14;;;;;;;20.88;10.75;;;;;;;9.77;100.00;97330.47;5077803;28;20068;-83
2023/12/03 08:46:40;;;;;;;24.70;11.40;;;;;;;9.65;100.00;97328.56;5086756;28;20147;-83
2023/12/03 08:49:07;;;;;;;16.50;7.88;;;;;;;9.57;100.00;97344.19;5079472;28;20115;-83
2023/12/03 08:51:33;;;;;;;19.95;9.60;;;;;;;9.43;100.00;97345.03;5057516;28;20435;-81
2023/12/03 08:53:59;;;;;;;14.82;8.20;;;;;;;9.42;100.00;97353.13;5037427;28;20462;-81
2023/12/03 08:56:26;;;;;;;12.32;6.38;;;;;;;9.41;100.00;97336.28;5037541;28;20432;-71
2023/12/03 08:58:53;;;;;;;7.07;4.72;;;;;;;9.32;100.00;97350.16;5055863;28;20036;-72
2023/12/03 09:01:20;;;;;;;9.90;4.80;;;;;;;9.24;100.00;97349.75;5062786;28;20063;-72
2023/12/03 09:03:46;;;;;;;8.95;5.22;;;;;;;9.34;100.00;97366.09;5060798;28;20028;-74
2023/12/03 09:06:13;;;;;;;10.45;4.22;;;;;;;9.22;100.00;97362.34;5037401;28;20037;-71
2023/12/03 09:08:40;;;;;;;10.55;6.45;;;;;;;9.20;100.00;97359.75;5068813;28;20036;-72
2023/12/03 09:11:09;;;;;;;19.92;10.05;;;;;;;9.19;100.00;97355.41;5043583;28;20119;-72
2023/12/03 09:13:35;;;;;;;25.35;14.35;;;;;;;9.16;100.00;97352.91;5077441;28;20381;-83
2023/12/03 09:16:01;;;;;;;11.32;5.57;;;;;;;9.19;100.00;97347.38;5044798;28;20039;-81
2023/12/03 09:18:27;;;;;;;2.85;1.00;;;;;;;9.10;100.00;97350.59;5048886;28;20408;-71
2023/12/03 09:20:54;;;;;;;0.50;0.47;;;;;;;8.63;100.00;97339.16;5051529;28;20439;-81
2023/12/03 09:23:20;;;;;;;1.98;0.82;;;;;;;8.79;100.00;97353.34;5048808;28;20064;-71
2023/12/03 09:25:46;;;;;;;1.23;1.00;;;;;;;8.79;100.00;97348.00;5058838;28;20051;-88
2023/12/03 09:28:12;;;;;;;0.52;0.52;;;;;;;8.76;100.00;97358.00;5060205;28;20476;-87
2023/12/03 09:30:38;;;;;;;0.32;0.32;;;;;;;8.84;100.00;97358.41;5061300;28;20035;-87
2023/12/03 09:33:04;;;;;;;0.88;0.85;;;;;;;8.69;100.00;97362.81;5065637;28;20056;-86
2023/12/03 09:35:31;;;;;;;4.07;1.52;;;;;;;8.59;100.00;97351.81;5044858;28;20417;-89
2023/12/03 09:37:57;;;;;;;3.47;1.70;;;;;;;8.64;100.00;97349.72;5041583;28;20057;-89
2023/12/03 09:40:24;;;;;;;7.45;1.05;;;;;;;8.71;100.00;97358.25;5050845;28;20559;-88
2023/12/03 09:42:51;;;;;;;1.25;1.15;;;;;;;8.67;100.00;97360.22;5064149;28;20055;-71
2023/12/03 09:45:19;;;;;;;1.63;1.52;;;;;;;8.53;100.00;97337.97;5049355;28;20099;-72
2023/12/03 09:47:53;;;;;;;2.75;1.38;;;;;;;8.61;100.00;97367.72;5055403;28;20536;-72
2023/12/03 09:50:21;;;;;;;1.63;1.52;;;;;;;8.63;100.00;97369.34;5079136;28;20093;-72
2023/12/03 09:52:53;;;;;;;1.20;1.10;;;;;;;8.38;100.00;97358.38;5084706;28;20024;-74
2023/12/03 09:55:25;;;;;;;0.55;0.50;;;;;;;8.08;100.00;97354.72;5088117;28;20098;-72
2023/12/03 09:57:55;;;;;;;0.93;0.93;;;;;;;8.12;100.00;97354.44;5078462;28;20479;-70
2023/12/03 10:00:28;;;;;;;4.32;1.45;;;;;;;8.19;100.00;97353.16;5091261;28;20063;-72
2023/12/03 10:02:54;;;;;;;3.60;1.42;;;;;;;8.10;100.00;97343.03;5102118;28;20027;-70
2023/12/03 10:05:21;;;;;;;3.63;2.67;;;;;;;8.14;100.00;97349.91;5089215;28;20471;-71
2023/12/03 10:07:48;;;;;;;1.40;1.25;;;;;;;8.13;100.00;97342.00;5080695;28;20039;-72
2023/12/03 10:10:20;;;;;;;3.13;1.52;;;;;;;8.24;100.00;97362.72;5082278;28;20106;-72
2023/12/03 10:12:47;;;;;;;1.98;1.85;;;;;;;8.33;100.00;97354.25;5054590;28;20034;-82
2023/12/03 10:15:13;;;;;;;2.22;1.02;;;;;;;8.38;100.00;97357.50;5105897;28;20088;-85
2023/12/03 10:17:41;;;;;;;5.85;1.00;;;;;;;8.46;100.00;97376.59;5074121;28;20027;-73
2023/12/03 10:20:26;;;;;;;4.25;1.35;;;;;;;8.42;100.00;97369.72;5083186;28;20112;-71
2023/12/03 10:22:58;;;;;;;2.08;1.17;;;;;;;8.44;100.00;97370.47;5053791;28;20055;-72
2023/12/03 10:25:31;;;;;;;1.02;0.93;;;;;;;8.39;100.00;97367.22;5070210;28;20059;-70
2023/12/03 10:27:59;;;;;;;0.77;0.73;;;;;;;8.37;100.00;97385.09;5070336;28;20023;-73
2023/12/03 10:30:25;;;;;;;4.88;2.65;;;;;;;8.35;100.00;97374.53;5053194;28;20040;-73
2023/12/03 10:32:51;;;;;;;1.30;0.85;;;;;;;8.29;100.00;97382.00;5079122;28;20134;-72
2023/12/03 10:35:21;;;;;;;4.05;1.67;;;;;;;8.40;100.00;97390.28;5071558;28;20127;-72
2023/12/03 10:37:48;;;;;;;3.38;2.35;;;;;;;8.08;100.00;97390.22;5090612;28;20020;-73
2023/12/03 10:40:14;;;;;;;2.72;1.75;;;;;;;8.17;100.00;97387.03;5081955;28;20139;-79
2023/12/03 10:42:40;;;;;;;2.42;1.45;;;;;;;8.28;100.00;97382.94;5067244;28;20492;-80
2023/12/03 10:45:08;;;;;;;4.50;1.67;;;;;;;8.33;100.00;97402.22;5075383;28;20115;-71
2023/12/03 10:47:35;;;;;;;1.73;1.42;;;;;;;8.32;100.00;97395.16;5069586;28;20024;-72
2023/12/03 10:50:03;;;;;;;2.55;1.95;;;;;;;8.30;100.00;97387.25;5085016;28;20054;-71
2023/12/03 10:52:31;;;;;;;2.78;1.67;;;;;;;8.27;100.00;97397.19;5078818;28;20039;-72
2023/12/03 10:54:57;;;;;;;0.90;0.90;;;;;;;8.31;100.00;97404.06;5072385;28;20502;-71
2023/12/03 10:57:25;;;;;;;2.25;0.93;;;;;;;8.29;100.00;97420.16;5072536;28;20035;-72
2023/12/03 10:59:55;;;;;;;2.47;1.33;;;;;;;8.30;100.00;97419.22;5077510;28;20035;-83
2023/12/03 11:02:31;;;;;;;6.13;3.13;;;;;;;8.40;100.00;97435.56;5088655;28;20138;-81
2023/12/03 11:05:04;;;;;;;2.08;1.30;;;;;;;8.30;100.00;97429.88;5072038;28;20031;-73
2023/12/03 11:07:32;;;;;;;2.20;1.63;;;;;;;8.26;100.00;97432.75;5089363;28;20028;-73
2023/12/03 11:09:58;;;;;;;4.00;1.33;;;;;;;8.15;100.00;97414.72;5079542;28;20426;-80
2023/12/03 11:12:24;;;;;;;0.50;0.50;;;;;;;8.06;100.00;97421.38;5102916;28;20059;-79
2023/12/03 11:14:59;;;;;;;2.50;1.27;;;;;;;8.10;100.00;97406.94;5061301;28;20031;-82